Time,TemperatureF,DewpointF,PressureIn,WindDirection,WindDirectionDegrees,WindSpeedMPH,WindSpeedGustMPH,Humidity,HourlyPrecipIn,Conditions,Clouds,dailyrainin,SoftwareType,DateUTC
2013-01-27 00:00:00,46.0,44.4,30.26,NNW,345,0.0,0.0,94,0.00,,,0.00,Wunderground v.1.15,2013-01-27 05:00:00,
2013-01-27 00:05:00,46.4,45.3,30.26,NNW,344,0.0,0.0,96,0.00,,,0.00,Wunderground v.1.15,2013-01-27 05:05:00,
2013-01-27 00:10:00,47.2,46.1,30.26,NNW,344,0.0,0.0,96,0.00,,,0.00,Wunderground v.1.15,2013-01-27 05:10:00,
2013-01-27 00:15:00,47.4,46.0,30.26,NNW,345,0.0,0.0,95,0.00,,,0.00,Wunderground v.1.15,2013-01-27 05:15:00,
2013-01-27 00:20:00,47.3,45.9,30.26,NNW,344,0.0,0.0,95,0.00,,,0.00,Wunderground v.1.15,2013-01-27 05:20:00,
2013-01-27 00:25:00,47.3,45.9,30.26,NNW,345,0.0,0.0,95,0.00,,,0.00,Wunderground v.1.15,2013-01-27 05:25:00,
2013-01-27 00:35:00,46.7,45.3,30.25,NNW,344,0.0,0.0,95,0.00,,,0.00,Wunderground v.1.15,2013-01-27 05:35:00,
2013-01-27 00:40:00,46.8,45.4,30.25,NNW,345,0.0,0.0,95,0.00,,,0.00,Wunderground v.1.15,2013-01-27 05:40:00,
2013-01-27 00:45:00,47.2,46.1,30.25,NNW,344,0.0,0.0,96,0.00,,,0.00,Wunderground v.1.15,2013-01-27 05:45:00,
2013-01-27 00:50:00,47.3,46.2,30.25,NNW,345,0.0,0.0,96,0.00,,,0.00,Wunderground v.1.15,2013-01-27 05:50:00,
2013-01-27 00:55:00,47.2,46.1,30.25,NNW,345,0.0,0.0,96,0.00,,,0.00,Wunderground v.1.15,2013-01-27 05:55:00,
2013-01-27 01:00:00,47.4,46.3,30.26,NNW,345,0.0,0.0,96,0.00,,,0.00,Wunderground v.1.15,2013-01-27 06:00:00,
2013-01-27 01:05:00,46.8,45.4,30.26,NNW,345,0.0,0.0,95,0.00,,,0.00,Wunderground v.1.15,2013-01-27 06:05:00,
2013-01-27 01:10:00,46.5,45.1,30.26,NNW,345,0.0,0.0,95,0.00,,,0.00,Wunderground v.1.15,2013-01-27 06:10:00,
2013-01-27 01:15:00,46.5,45.4,30.26,NNW,345,0.0,0.0,96,0.00,,,0.00,Wunderground v.1.15,2013-01-27 06:15:00,
2013-01-27 01:20:00,46.3,44.9,30.26,NNW,344,0.0,0.0,95,0.00,,,0.00,Wunderground v.1.15,2013-01-27 06:20:00,
2013-01-27 01:25:00,46.1,44.7,30.26,NNW,344,0.0,0.0,95,0.00,,,0.00,Wunderground v.1.15,2013-01-27 06:25:00,
2013-01-27 01:35:00,46.2,45.1,30.26,NNW,344,0.0,0.0,96,0.00,,,0.00,Wunderground v.1.15,2013-01-27 06:35:00,
2013-01-27 01:40:00,45.8,44.4,30.26,NNW,344,0.0,0.0,95,0.00,,,0.00,Wunderground v.1.15,2013-01-27 06:40:00,
2013-01-27 01:45:00,45.6,44.3,30.26,NNW,344,0.0,0.0,95,0.00,,,0.00,Wunderground v.1.15,2013-01-27 06:45:00,
2013-01-27 01:50:00,46.0,44.9,30.26,NNW,344,0.0,0.0,96,0.00,,,0.00,Wunderground v.1.15,2013-01-27 06:50:00,
2013-01-27 01:55:00,46.1,45.0,30.26,NNW,344,0.0,0.0,96,0.00,,,0.00,Wunderground v.1.15,2013-01-27 06:55:00,
2013-01-27 02:00:00,46.0,44.6,30.26,NNW,345,0.0,0.0,95,0.00,,,0.00,Wunderground v.1.15,2013-01-27 07:00:00,
2013-01-27 02:15:00,47.3,46.5,30.26,NNW,345,0.0,0.0,97,0.00,,,0.00,Wunderground v.1.15,2013-01-27 07:15:00,
2013-01-27 02:20:00,47.8,47.0,30.26,NNW,345,0.0,0.0,97,0.00,,,0.00,Wunderground v.1.15,2013-01-27 07:20:00,
2013-01-27 02:25:00,48.2,47.4,30.26,NNW,345,0.0,0.0,97,0.00,,,0.00,Wunderground v.1.15,2013-01-27 07:25:00,
2013-01-27 02:30:00,48.3,47.5,30.26,NNW,345,0.0,0.0,97,0.00,,,0.00,Wunderground v.1.15,2013-01-27 07:30:00,
2013-01-27 02:35:00,48.1,47.0,30.26,NNW,345,0.0,0.0,96,0.00,,,0.00,Wunderground v.1.15,2013-01-27 07:35:00,
2013-01-27 02:45:00,47.3,45.9,30.26,NNW,345,0.0,0.0,95,0.00,,,0.00,Wunderground v.1.15,2013-01-27 07:45:00,
2013-01-27 02:50:00,47.2,46.1,30.26,NNW,345,0.0,0.0,96,0.00,,,0.00,Wunderground v.1.15,2013-01-27 07:50:00,
2013-01-27 02:55:00,47.2,46.1,30.26,NNW,345,0.0,0.0,96,0.00,,,0.00,Wunderground v.1.15,2013-01-27 07:55:00,
2013-01-27 03:00:00,47.3,46.2,30.26,NNW,345,0.0,0.0,96,0.00,,,0.00,Wunderground v.1.15,2013-01-27 08:00:00,
2013-01-27 03:05:00,47.5,46.4,30.26,NNW,345,0.0,0.0,96,0.00,,,0.00,Wunderground v.1.15,2013-01-27 08:05:00,
2013-01-27 03:10:00,47.7,46.6,30.26,NNW,344,0.0,0.0,96,0.00,,,0.00,Wunderground v.1.15,2013-01-27 08:10:00,
2013-01-27 03:20:00,48.0,47.2,30.26,NNW,345,0.0,0.0,97,0.00,,,0.00,Wunderground v.1.15,2013-01-27 08:20:00,
2013-01-27 03:25:00,48.1,47.0,30.26,NNW,345,0.0,0.0,96,0.00,,,0.00,Wunderground v.1.15,2013-01-27 08:25:00,
2013-01-27 03:30:00,48.4,47.6,30.26,NNW,344,0.0,0.0,97,0.00,,,0.00,Wunderground v.1.15,2013-01-27 08:30:00,
2013-01-27 03:35:00,48.5,47.7,30.26,NNW,345,0.0,0.0,97,0.00,,,0.00,Wunderground v.1.15,2013-01-27 08:35:00,
2013-01-27 03:40:00,48.5,47.4,30.26,NNW,345,0.0,0.0,96,0.00,,,0.00,Wunderground v.1.15,2013-01-27 08:40:00,
2013-01-27 03:50:00,48.7,47.6,30.26,NNW,345,0.0,0.0,96,0.00,,,0.00,Wunderground v.1.15,2013-01-27 08:50:00,
2013-01-27 03:55:00,48.7,47.6,30.26,NNW,344,0.0,0.0,96,0.00,,,0.00,Wunderground v.1.15,2013-01-27 08:55:00,
2013-01-27 04:00:00,48.7,47.6,30.26,NNW,345,0.0,0.0,96,0.00,,,0.00,Wunderground v.1.15,2013-01-27 09:00:00,
2013-01-27 04:05:00,48.6,47.5,30.26,NNW,345,0.0,0.0,96,0.00,,,0.00,Wunderground v.1.15,2013-01-27 09:05:00,
2013-01-27 04:10:00,48.4,47.3,30.26,NNW,344,0.0,0.0,96,0.00,,,0.00,Wunderground v.1.15,2013-01-27 09:10:00,
2013-01-27 04:15:00,48.3,47.2,30.26,NNW,345,0.0,0.0,96,0.00,,,0.00,Wunderground v.1.15,2013-01-27 09:15:00,
2013-01-27 04:20:00,48.2,47.4,30.27,NNW,345,0.0,0.0,97,0.00,,,0.00,Wunderground v.1.15,2013-01-27 09:20:00,
2013-01-27 04:25:00,48.3,47.5,30.27,NNW,345,0.0,0.0,97,0.00,,,0.00,Wunderground v.1.15,2013-01-27 09:25:00,
2013-01-27 04:34:00,48.1,47.0,30.27,NNW,345,0.0,0.0,96,0.00,,,0.00,Wunderground v.1.15,2013-01-27 09:34:00,
2013-01-27 04:39:00,48.0,46.9,30.27,NNW,344,0.0,0.0,96,0.00,,,0.00,Wunderground v.1.15,2013-01-27 09:39:00,
2013-01-27 04:44:00,47.9,46.8,30.27,NNW,345,0.0,0.0,96,0.00,,,0.00,Wunderground v.1.15,2013-01-27 09:44:00,
2013-01-27 04:50:00,47.8,46.7,30.27,NNW,345,0.0,0.0,96,0.00,,,0.00,Wunderground v.1.15,2013-01-27 09:50:00,
2013-01-27 04:55:00,47.9,47.1,30.27,NNW,345,0.0,0.0,97,0.00,,,0.00,Wunderground v.1.15,2013-01-27 09:55:00,
2013-01-27 05:00:00,48.0,47.2,30.27,NNW,345,0.0,0.0,97,0.00,,,0.00,Wunderground v.1.15,2013-01-27 10:00:00,
2013-01-27 05:05:00,47.9,47.1,30.27,NNW,344,0.0,0.0,97,0.00,,,0.00,Wunderground v.1.15,2013-01-27 10:05:00,
2013-01-27 05:10:00,47.8,47.0,30.27,NNW,345,0.0,0.0,97,0.00,,,0.00,Wunderground v.1.15,2013-01-27 10:10:00,
2013-01-27 05:15:00,47.8,47.0,30.27,NNW,345,0.0,0.0,97,0.00,,,0.00,Wunderground v.1.15,2013-01-27 10:15:00,
2013-01-27 05:25:00,47.7,46.9,30.27,NNW,344,0.0,0.0,97,0.00,,,0.00,Wunderground v.1.15,2013-01-27 10:25:00,
2013-01-27 05:30:00,47.6,46.8,30.27,NNW,345,0.0,0.0,97,0.00,,,0.00,Wunderground v.1.15,2013-01-27 10:30:00,
2013-01-27 05:35:00,47.5,46.7,30.27,NNW,345,0.0,0.0,97,0.00,,,0.00,Wunderground v.1.15,2013-01-27 10:35:00,
2013-01-27 05:40:00,47.5,46.7,30.27,NNW,345,0.0,0.0,97,0.00,,,0.00,Wunderground v.1.15,2013-01-27 10:40:00,
2013-01-27 05:45:00,47.5,46.7,30.27,NNW,345,0.0,0.0,97,0.00,,,0.00,Wunderground v.1.15,2013-01-27 10:45:00,
2013-01-27 05:50:00,47.2,46.1,30.27,NNW,345,0.0,0.0,96,0.00,,,0.00,Wunderground v.1.15,2013-01-27 10:50:00,
2013-01-27 06:00:00,46.9,45.8,30.27,NNW,345,0.0,0.0,96,0.00,,,0.00,Wunderground v.1.15,2013-01-27 11:00:00,
2013-01-27 06:05:00,47.0,46.2,30.28,NNW,344,0.0,0.0,97,0.00,,,0.00,Wunderground v.1.15,2013-01-27 11:05:00,
2013-01-27 06:10:00,46.9,46.1,30.27,NNW,345,0.0,0.0,97,0.00,,,0.00,Wunderground v.1.15,2013-01-27 11:10:00,
2013-01-27 06:15:00,46.8,46.0,30.27,NNW,345,0.0,0.0,97,0.00,,,0.00,Wunderground v.1.15,2013-01-27 11:15:00,
2013-01-27 06:20:00,46.8,46.0,30.28,NNW,345,0.0,0.0,97,0.00,,,0.00,Wunderground v.1.15,2013-01-27 11:20:00,
2013-01-27 06:30:00,46.7,45.9,30.28,NNW,345,0.0,0.0,97,0.00,,,0.00,Wunderground v.1.15,2013-01-27 11:30:00,
2013-01-27 06:35:00,46.6,45.8,30.28,NNW,345,0.0,0.0,97,0.00,,,0.00,Wunderground v.1.15,2013-01-27 11:35:00,
2013-01-27 06:40:00,46.5,45.7,30.28,NNW,345,0.0,0.0,97,0.00,,,0.00,Wunderground v.1.15,2013-01-27 11:40:00,
2013-01-27 06:45:00,46.4,45.6,30.28,NNW,345,0.0,0.0,97,0.00,,,0.00,Wunderground v.1.15,2013-01-27 11:45:00,
2013-01-27 06:50:00,46.3,45.5,30.28,NNW,345,0.0,0.0,97,0.00,,,0.00,Wunderground v.1.15,2013-01-27 11:50:00,
2013-01-27 06:55:00,46.3,45.5,30.29,NNW,345,0.0,0.0,97,0.00,,,0.00,Wunderground v.1.15,2013-01-27 11:55:00,
2013-01-27 07:05:00,46.7,45.9,30.29,NNW,344,0.0,0.0,97,0.00,,,0.00,Wunderground v.1.15,2013-01-27 12:05:00,
2013-01-27 07:10:00,46.8,46.0,30.29,NNW,345,0.0,0.0,97,0.00,,,0.00,Wunderground v.1.15,2013-01-27 12:10:00,
2013-01-27 07:15:00,46.8,46.0,30.29,NNW,345,0.0,0.0,97,0.00,,,0.00,Wunderground v.1.15,2013-01-27 12:15:00,
2013-01-27 07:20:00,46.8,46.0,30.29,NNW,345,0.0,0.0,97,0.00,,,0.00,Wunderground v.1.15,2013-01-27 12:20:00,
2013-01-27 07:25:00,47.0,46.2,30.29,NNW,345,0.0,0.0,97,0.00,,,0.00,Wunderground v.1.15,2013-01-27 12:25:00,
2013-01-27 07:35:00,47.3,46.5,30.30,NNW,344,0.0,0.0,97,0.00,,,0.00,Wunderground v.1.15,2013-01-27 12:35:00,
2013-01-27 07:40:00,47.6,46.8,30.30,NNW,345,0.0,0.0,97,0.00,,,0.00,Wunderground v.1.15,2013-01-27 12:40:00,
2013-01-27 07:45:00,47.8,47.0,30.30,NNW,344,0.0,0.0,97,0.00,,,0.00,Wunderground v.1.15,2013-01-27 12:45:00,
2013-01-27 07:50:00,48.2,47.4,30.30,NNW,345,0.0,0.0,97,0.00,,,0.00,Wunderground v.1.15,2013-01-27 12:50:00,
2013-01-27 07:55:00,48.7,47.9,30.30,NNW,344,0.0,0.0,97,0.00,,,0.00,Wunderground v.1.15,2013-01-27 12:55:00,
2013-01-27 08:00:00,49.2,48.7,30.30,NNW,345,0.0,0.0,98,0.00,,,0.00,Wunderground v.1.15,2013-01-27 13:00:00,
2013-01-27 08:05:00,49.6,49.1,30.30,NNW,345,0.0,0.0,98,0.00,,,0.00,Wunderground v.1.15,2013-01-27 13:05:00,
2013-01-27 08:10:00,50.0,49.5,30.31,NNW,344,0.0,0.0,98,0.00,,,0.00,Wunderground v.1.15,2013-01-27 13:10:00,
2013-01-27 08:15:00,50.4,49.6,30.31,NNW,345,0.0,0.0,97,0.00,,,0.00,Wunderground v.1.15,2013-01-27 13:15:00,
2013-01-27 08:20:00,50.8,50.0,30.31,NNW,345,0.0,0.0,97,0.00,,,0.00,Wunderground v.1.15,2013-01-27 13:20:00,
2013-01-27 08:25:00,51.1,50.3,30.31,NNW,345,0.0,0.0,97,0.00,,,0.00,Wunderground v.1.15,2013-01-27 13:25:00,
2013-01-27 08:30:00,51.7,51.2,30.31,NNW,344,0.0,0.0,98,0.00,,,0.00,Wunderground v.1.15,2013-01-27 13:30:00,
2013-01-27 08:40:00,52.7,52.2,30.31,WNW,288,0.0,0.0,98,0.00,,,0.01,Wunderground v.1.15,2013-01-27 13:40:00,
2013-01-27 08:45:00,53.4,52.8,30.32,NNE,18,0.0,0.0,98,0.00,,,0.01,Wunderground v.1.15,2013-01-27 13:45:00,
2013-01-27 08:50:00,53.9,53.3,30.32,NNE,23,0.0,0.0,98,0.00,,,0.01,Wunderground v.1.15,2013-01-27 13:50:00,
2013-01-27 08:55:00,54.4,53.8,30.32,NNE,15,0.0,0.0,98,0.00,,,0.01,Wunderground v.1.15,2013-01-27 13:55:00,
2013-01-27 09:00:00,54.9,54.1,30.32,NNE,15,0.0,0.0,97,0.00,,,0.01,Wunderground v.1.15,2013-01-27 14:00:00,
2013-01-27 09:10:00,55.8,55.0,30.32,North,356,0.0,0.0,97,0.00,,,0.01,Wunderground v.1.15,2013-01-27 14:10:00,
2013-01-27 09:15:00,56.1,55.3,30.32,North,11,0.0,0.0,97,0.00,,,0.01,Wunderground v.1.15,2013-01-27 14:15:00,
2013-01-27 09:20:00,56.5,55.7,30.32,NNE,15,0.0,0.0,97,0.00,,,0.01,Wunderground v.1.15,2013-01-27 14:20:00,
2013-01-27 09:25:00,57.1,56.3,30.33,North,355,0.0,0.0,97,0.00,,,0.01,Wunderground v.1.15,2013-01-27 14:25:00,
2013-01-27 09:30:00,57.7,56.9,30.33,North,360,0.0,0.0,97,0.00,,,0.01,Wunderground v.1.15,2013-01-27 14:30:00,
2013-01-27 09:35:00,58.0,57.2,30.33,NE,39,0.0,1.0,97,0.00,,,0.01,Wunderground v.1.15,2013-01-27 14:35:00,
2013-01-27 09:45:00,59.2,58.3,30.33,NNW,341,0.0,2.0,97,0.00,,,0.01,Wunderground v.1.15,2013-01-27 14:45:00,
2013-01-27 09:50:00,59.8,58.9,30.33,NE,46,1.0,1.0,97,0.00,,,0.01,Wunderground v.1.15,2013-01-27 14:50:00,
2013-01-27 09:55:00,60.3,59.4,30.33,North,11,1.0,1.0,97,0.00,,,0.01,Wunderground v.1.15,2013-01-27 14:55:00,
2013-01-27 10:00:00,60.9,60.0,30.33,East,101,1.0,3.0,97,0.00,,,0.01,Wunderground v.1.15,2013-01-27 15:00:00,
2013-01-27 10:05:00,61.4,60.2,30.33,East,90,1.0,3.0,96,0.00,,,0.01,Wunderground v.1.15,2013-01-27 15:05:00,
2013-01-27 10:15:00,62.8,61.6,30.33,NE,47,2.0,2.0,96,0.00,,,0.01,Wunderground v.1.15,2013-01-27 15:15:00,
2013-01-27 10:20:00,63.9,62.4,30.33,NE,50,2.0,3.0,95,0.00,,,0.01,Wunderground v.1.15,2013-01-27 15:20:00,
2013-01-27 10:25:00,64.8,62.7,30.33,NE,46,2.0,3.0,93,0.00,,,0.01,Wunderground v.1.15,2013-01-27 15:25:00,
2013-01-27 10:30:00,66.2,63.5,30.34,NE,56,1.0,1.0,91,0.00,,,0.01,Wunderground v.1.15,2013-01-27 15:30:00,
2013-01-27 10:35:00,67.5,62.8,30.34,NE,34,1.0,1.0,85,0.00,,,0.01,Wunderground v.1.15,2013-01-27 15:35:00,
2013-01-27 10:40:00,68.7,63.0,30.34,NNW,335,2.0,2.0,82,0.00,,,0.01,Wunderground v.1.15,2013-01-27 15:40:00,
2013-01-27 10:50:00,69.2,61.7,30.34,East,79,2.0,2.0,77,0.00,,,0.01,Wunderground v.1.15,2013-01-27 15:50:00,
2013-01-27 10:55:00,69.8,61.1,30.34,ENE,72,2.0,2.0,74,0.00,,,0.01,Wunderground v.1.15,2013-01-27 15:55:00,
2013-01-27 11:00:00,70.5,60.6,30.33,ENE,66,2.0,5.0,71,0.00,,,0.01,Wunderground v.1.15,2013-01-27 16:00:00,
2013-01-27 11:05:00,71.1,61.2,30.33,ENE,66,2.0,5.0,71,0.00,,,0.01,Wunderground v.1.15,2013-01-27 16:05:00,
2013-01-27 11:10:00,71.7,60.2,30.33,ENE,60,3.0,4.0,67,0.00,,,0.01,Wunderground v.1.15,2013-01-27 16:10:00,
2013-01-27 11:35:00,74.4,58.7,30.33,SE,129,2.0,2.0,58,0.00,,,0.01,Wunderground v.1.15,2013-01-27 16:35:00,
2013-01-27 11:40:00,74.9,58.1,30.33,NE,36,2.0,2.0,56,0.00,,,0.01,Wunderground v.1.15,2013-01-27 16:40:00,
2013-01-27 12:10:00,75.8,58.0,30.31,ESE,108,2.0,2.0,54,0.00,,,0.01,Wunderground v.1.15,2013-01-27 17:10:00,
2013-01-27 12:20:00,76.4,56.9,30.31,ESE,117,3.0,6.0,51,0.00,,,0.01,Wunderground v.1.15,2013-01-27 17:20:00,
2013-01-27 12:30:00,76.8,57.3,30.30,ESE,118,4.0,4.0,51,0.00,,,0.01,Wunderground v.1.15,2013-01-27 17:30:00,
2013-01-27 12:35:00,76.6,57.7,30.30,ESE,113,3.0,4.0,52,0.00,,,0.01,Wunderground v.1.15,2013-01-27 17:35:00,
2013-01-27 12:45:00,77.3,57.2,30.29,SE,131,4.0,4.0,50,0.00,,,0.01,Wunderground v.1.15,2013-01-27 17:45:00,
2013-01-27 12:55:00,77.5,56.8,30.29,East,90,4.0,4.0,49,0.00,,,0.01,Wunderground v.1.15,2013-01-27 17:55:00,
2013-01-27 13:10:00,77.7,56.4,30.28,ESE,110,4.0,4.0,48,0.00,,,0.01,Wunderground v.1.15,2013-01-27 18:10:00,
2013-01-27 13:20:00,78.1,56.2,30.28,East,90,4.0,7.0,47,0.00,,,0.01,Wunderground v.1.15,2013-01-27 18:20:00,
2013-01-27 13:25:00,77.8,57.1,30.28,NE,51,4.0,4.0,49,0.00,,,0.01,Wunderground v.1.15,2013-01-27 18:25:00,
2013-01-27 13:30:00,77.7,55.9,30.27,ENE,66,5.0,5.0,47,0.00,,,0.01,Wunderground v.1.15,2013-01-27 18:30:00,
2013-01-27 13:40:00,77.9,57.2,30.27,SSE,148,4.0,4.0,49,0.00,,,0.01,Wunderground v.1.15,2013-01-27 18:40:00,
2013-01-27 13:50:00,78.0,56.7,30.27,East,98,4.0,6.0,48,0.00,,,0.01,Wunderground v.1.15,2013-01-27 18:50:00,
2013-01-27 13:55:00,78.2,57.5,30.27,SSE,148,4.0,4.0,49,0.00,,,0.01,Wunderground v.1.15,2013-01-27 18:55:00,
2013-01-27 14:05:00,78.4,56.5,30.27,ENE,69,4.0,12.0,47,0.00,,,0.01,Wunderground v.1.15,2013-01-27 19:05:00,
2013-01-27 14:15:00,78.5,57.2,30.26,ENE,70,4.0,12.0,48,0.00,,,0.01,Wunderground v.1.15,2013-01-27 19:15:00,
2013-01-27 14:20:00,79.2,57.2,30.26,SE,132,5.0,12.0,47,0.00,,,0.01,Wunderground v.1.15,2013-01-27 19:20:00,
2013-01-27 14:30:00,79.6,56.4,30.26,ESE,107,5.0,6.0,45,0.00,,,0.01,Wunderground v.1.15,2013-01-27 19:30:00,
2013-01-27 14:40:00,79.3,56.7,30.25,ESE,105,7.0,7.0,46,0.00,,,0.01,Wunderground v.1.15,2013-01-27 19:40:00,
2013-01-27 14:50:00,79.1,56.5,30.25,ESE,115,5.0,6.0,46,0.00,,,0.01,Wunderground v.1.15,2013-01-27 19:50:00,
2013-01-27 15:00:00,79.0,57.0,30.25,ENE,60,4.0,4.0,47,0.00,,,0.01,Wunderground v.1.15,2013-01-27 20:00:00,
2013-01-27 15:05:00,79.1,56.5,30.25,ENE,62,5.0,5.0,46,0.00,,,0.01,Wunderground v.1.15,2013-01-27 20:05:00,
2013-01-27 15:15:00,78.8,56.9,30.25,ENE,64,5.0,10.0,47,0.00,,,0.01,Wunderground v.1.15,2013-01-27 20:15:00,
2013-01-27 15:25:00,79.1,56.5,30.25,NE,44,6.0,6.0,46,0.00,,,0.01,Wunderground v.1.15,2013-01-27 20:25:00,
2013-01-27 15:35:00,78.7,57.4,30.25,East,95,5.0,6.0,48,0.00,,,0.01,Wunderground v.1.15,2013-01-27 20:35:00,
2013-01-27 15:45:00,78.9,57.5,30.25,SE,126,5.0,5.0,48,0.00,,,0.01,Wunderground v.1.15,2013-01-27 20:45:00,
2013-01-27 15:50:00,78.5,57.2,30.25,ESE,109,5.0,5.0,48,0.00,,,0.01,Wunderground v.1.15,2013-01-27 20:50:00,
2013-01-27 16:00:00,78.8,57.4,30.25,ESE,107,5.0,5.0,48,0.00,,,0.01,Wunderground v.1.15,2013-01-27 21:00:00,
2013-01-27 16:09:00,78.4,57.7,30.25,SE,145,4.0,10.0,49,0.00,,,0.01,Wunderground v.1.15,2013-01-27 21:09:00,
2013-01-27 16:15:00,78.1,57.4,30.25,ESE,120,6.0,10.0,49,0.00,,,0.01,Wunderground v.1.15,2013-01-27 21:15:00,
2013-01-27 16:25:00,77.8,57.1,30.25,SE,142,6.0,7.0,49,0.00,,,0.01,Wunderground v.1.15,2013-01-27 21:25:00,
2013-01-27 16:35:00,77.6,57.5,30.25,ESE,111,5.0,5.0,50,0.00,,,0.01,Wunderground v.1.15,2013-01-27 21:35:00,
2013-01-27 16:40:00,77.4,57.9,30.25,East,96,5.0,5.0,51,0.00,,,0.01,Wunderground v.1.15,2013-01-27 21:40:00,
2013-01-27 16:50:00,77.4,57.9,30.26,East,85,4.0,4.0,51,0.00,,,0.01,Wunderground v.1.15,2013-01-27 21:50:00,
2013-01-27 17:00:00,76.9,57.9,30.26,ESE,117,5.0,6.0,52,0.00,,,0.01,Wunderground v.1.15,2013-01-27 22:00:00,
2013-01-27 17:10:00,76.3,57.9,30.26,SE,145,4.0,10.0,53,0.00,,,0.01,Wunderground v.1.15,2013-01-27 22:10:00,
2013-01-27 17:20:00,76.0,58.2,30.26,East,90,4.0,10.0,54,0.00,,,0.01,Wunderground v.1.15,2013-01-27 22:20:00,
2013-01-27 17:30:00,75.3,59.0,30.27,ENE,60,5.0,7.0,57,0.00,,,0.01,Wunderground v.1.15,2013-01-27 22:30:00,
2013-01-27 17:40:00,74.0,59.2,30.27,East,81,7.0,7.0,60,0.00,,,0.01,Wunderground v.1.15,2013-01-27 22:40:00,
2013-01-27 17:50:00,72.7,59.4,30.27,ENE,59,6.0,10.0,63,0.00,,,0.01,Wunderground v.1.15,2013-01-27 22:50:00,
2013-01-27 18:00:00,71.9,59.5,30.28,ENE,65,6.0,6.0,65,0.00,,,0.01,Wunderground v.1.15,2013-01-27 23:00:00,
2013-01-27 18:09:00,70.9,59.4,30.28,ENE,66,4.0,9.0,67,0.00,,,0.01,Wunderground v.1.15,2013-01-27 23:09:00,
2013-01-27 18:15:00,70.4,59.7,30.28,East,79,4.0,9.0,69,0.00,,,0.01,Wunderground v.1.15,2013-01-27 23:15:00,
2013-01-27 18:25:00,69.8,60.0,30.29,East,82,4.0,9.0,71,0.00,,,0.01,Wunderground v.1.15,2013-01-27 23:25:00,
2013-01-27 18:35:00,69.1,59.7,30.29,ENE,65,4.0,5.0,72,0.00,,,0.01,Wunderground v.1.15,2013-01-27 23:35:00,
2013-01-27 18:45:00,68.5,59.9,30.29,ENE,72,4.0,6.0,74,0.00,,,0.01,Wunderground v.1.15,2013-01-27 23:45:00,
2013-01-27 18:55:00,68.1,59.9,30.30,ENE,72,4.0,6.0,75,0.00,,,0.01,Wunderground v.1.15,2013-01-27 23:55:00,
2013-01-27 19:05:00,67.5,59.7,30.30,East,83,3.0,14.0,76,0.00,,,0.01,Wunderground v.1.15,2013-01-28 00:05:00,
2013-01-27 19:14:00,67.0,59.9,30.31,ENE,70,3.0,14.0,78,0.00,,,0.01,Wunderground v.1.15,2013-01-28 00:14:00,
2013-01-27 19:20:00,66.7,60.0,30.31,East,87,3.0,3.0,79,0.00,,,0.01,Wunderground v.1.15,2013-01-28 00:20:00,
2013-01-27 19:30:00,66.0,59.7,30.31,ENE,65,2.0,2.0,80,0.00,,,0.01,Wunderground v.1.15,2013-01-28 00:30:00,
2013-01-27 19:35:00,65.5,59.5,30.31,ENE,66,2.0,2.0,81,0.00,,,0.01,Wunderground v.1.15,2013-01-28 00:35:00,
2013-01-27 19:45:00,64.6,59.0,30.31,ENE,73,1.0,2.0,82,0.00,,,0.01,Wunderground v.1.15,2013-01-28 00:45:00,
2013-01-27 19:55:00,63.8,58.9,30.31,ENE,75,0.0,0.0,84,0.00,,,0.01,Wunderground v.1.15,2013-01-28 00:55:00,
2013-01-27 20:05:00,63.2,58.9,30.31,ENE,71,0.0,8.0,86,0.00,,,0.01,Wunderground v.1.15,2013-01-28 01:05:00,
2013-01-27 20:10:00,63.2,59.3,30.31,ENE,66,0.0,8.0,87,0.00,,,0.01,Wunderground v.1.15,2013-01-28 01:10:00,
2013-01-27 20:20:00,63.4,59.5,30.32,ENE,72,1.0,8.0,87,0.00,,,0.01,Wunderground v.1.15,2013-01-28 01:20:00,
2013-01-27 20:29:00,63.2,59.3,30.32,ENE,69,1.0,1.0,87,0.00,,,0.01,Wunderground v.1.15,2013-01-28 01:29:00,
2013-01-27 20:35:00,63.0,59.1,30.32,ENE,73,0.0,1.0,87,0.00,,,0.01,Wunderground v.1.15,2013-01-28 01:35:00,
2013-01-27 20:45:00,62.2,58.6,30.32,ENE,77,0.0,0.0,88,0.00,,,0.01,Wunderground v.1.15,2013-01-28 01:45:00,
2013-01-27 20:55:00,61.5,58.2,30.33,ENE,76,0.0,0.0,89,0.00,,,0.01,Wunderground v.1.15,2013-01-28 01:55:00,
2013-01-27 21:05:00,61.3,58.3,30.33,ENE,72,0.0,3.0,90,0.00,,,0.01,Wunderground v.1.15,2013-01-28 02:05:00,
2013-01-27 21:15:00,61.1,58.5,30.33,ENE,72,0.0,3.0,91,0.00,,,0.01,Wunderground v.1.15,2013-01-28 02:15:00,
2013-01-27 21:25:00,61.1,58.5,30.33,ENE,72,0.0,3.0,91,0.00,,,0.01,Wunderground v.1.15,2013-01-28 02:25:00,
2013-01-27 21:35:00,61.1,58.8,30.33,ENE,58,0.0,0.0,92,0.00,,,0.01,Wunderground v.1.15,2013-01-28 02:35:00,
2013-01-27 21:45:00,61.5,59.2,30.33,ENE,73,1.0,1.0,92,0.00,,,0.01,Wunderground v.1.15,2013-01-28 02:45:00,
2013-01-27 21:55:00,61.4,58.7,30.33,NE,34,0.0,1.0,91,0.00,,,0.01,Wunderground v.1.15,2013-01-28 02:55:00,
2013-01-27 22:00:00,61.2,58.6,30.33,NE,44,0.0,1.0,91,0.00,,,0.01,Wunderground v.1.15,2013-01-28 03:00:00,
2013-01-27 22:10:00,60.7,58.1,30.33,NE,47,0.0,1.0,91,0.00,,,0.01,Wunderground v.1.15,2013-01-28 03:10:00,
2013-01-27 22:20:00,60.6,58.3,30.33,ENE,72,0.0,1.0,92,0.00,,,0.01,Wunderground v.1.15,2013-01-28 03:20:00,
2013-01-27 22:30:00,61.5,59.5,30.33,ENE,76,1.0,1.0,93,0.00,,,0.01,Wunderground v.1.15,2013-01-28 03:30:00,
2013-01-27 22:40:00,61.9,59.9,30.33,ENE,58,2.0,2.0,93,0.00,,,0.01,Wunderground v.1.15,2013-01-28 03:40:00,
2013-01-27 22:49:00,62.2,60.2,30.33,East,82,2.0,2.0,93,0.00,,,0.01,Wunderground v.1.15,2013-01-28 03:49:00,
2013-01-27 22:55:00,62.3,60.2,30.33,ENE,64,1.0,2.0,93,0.00,,,0.01,Wunderground v.1.15,2013-01-28 03:55:00,
2013-01-27 23:05:00,62.3,59.9,30.33,ENE,65,1.0,2.0,92,0.00,,,0.01,Wunderground v.1.15,2013-01-28 04:05:00,
2013-01-27 23:15:00,62.4,60.3,30.33,ENE,57,1.0,2.0,93,0.00,,,0.01,Wunderground v.1.15,2013-01-28 04:15:00,
2013-01-27 23:25:00,62.7,60.6,30.33,NE,38,2.0,3.0,93,0.00,,,0.01,Wunderground v.1.15,2013-01-28 04:25:00,
2013-01-27 23:35:00,63.1,61.0,30.33,ENE,57,2.0,2.0,93,0.00,,,0.01,Wunderground v.1.15,2013-01-28 04:35:00,
2013-01-27 23:40:00,63.1,60.7,30.32,NE,51,1.0,1.0,92,0.00,,,0.01,Wunderground v.1.15,2013-01-28 04:40:00,
2013-01-27 23:50:00,63.2,60.8,30.32,ENE,65,1.0,1.0,92,0.00,,,0.01,Wunderground v.1.15,2013-01-28 04:50:00,
2013-01-27 23:59:00,63.4,61.0,30.32,ENE,69,2.0,2.0,92,0.00,,,0.01,Wunderground v.1.15,2013-01-28 04:59:00,